Terminal Aerodrome Forecast
Issued by NWS

Home | Current Version | Previous Version | Text Only | Print | Product List | Glossary On
Versions: 1 2 3 4 5 6 7 8 9 10 11 12 13 14 15 16 17 18 19
000
FTUS42 KFFC 292331
TAFRYY
TAF
KRYY 292331Z 3000/3024 VRB03KT P6SM BKN250
     FM301000 15005KT P6SM SCT015 BKN250
     FM301600 15010G15KT P6SM BKN040
     FM302200 17010G20KT P6SM VCSH BKN045
      AMD NOT SKED 3004/3012=

USA.gov is the U.S. government's official web portal to all federal, state and local government web resources and services.